createdAt,value
2023-04-09T00:00:00.182Z,1008.99
2023-04-09T00:05:00.173Z,1008.94
2023-04-09T00:10:00.172Z,1008.97
2023-04-09T00:15:00.154Z,1008.92
2023-04-09T00:20:00.125Z,1008.97
2023-04-09T00:25:00.100Z,1009.14
2023-04-09T00:30:00.162Z,1009.09
2023-04-09T00:35:00.129Z,1009.1
2023-04-09T00:40:00.123Z,1009.16
2023-04-09T00:45:00.148Z,1009.15
2023-04-09T00:50:00.123Z,1009.13
2023-04-09T00:55:00.158Z,1009.04
2023-04-09T01:00:00.150Z,1009.09
2023-04-09T01:05:00.168Z,1009.11
2023-04-09T01:10:00.126Z,1009.23
2023-04-09T01:15:00.202Z,1009.23
2023-04-09T01:20:00.103Z,1009.22
2023-04-09T01:25:00.096Z,1009.22
2023-04-09T01:30:00.143Z,1009.17
2023-04-09T01:35:00.142Z,1009.19
2023-04-09T01:40:00.181Z,1009.09
2023-04-09T01:45:00.127Z,1009.02
2023-04-09T01:50:00.108Z,1009.03
2023-04-09T01:55:00.138Z,1009.03
2023-04-09T02:00:00.127Z,1009.01
2023-04-09T02:05:00.132Z,1009.04
2023-04-09T02:10:00.148Z,1009.09
2023-04-09T02:15:00.178Z,1009.05
2023-04-09T02:20:00.151Z,1009.11
2023-04-09T02:25:00.177Z,1009.04
2023-04-09T02:30:00.139Z,1009.12
2023-04-09T02:35:00.161Z,1009.13
2023-04-09T02:40:00.107Z,1009.12
2023-04-09T02:45:00.093Z,1009.09
2023-04-09T02:50:00.165Z,1009.17
2023-04-09T02:55:00.146Z,1009.14
2023-04-09T03:00:00.147Z,1009.21
2023-04-09T03:05:00.112Z,1009.17
2023-04-09T03:10:00.132Z,1009.21
2023-04-09T03:15:00.146Z,1009.18
2023-04-09T03:20:00.120Z,1009.15
2023-04-09T03:25:00.144Z,1008.57
2023-04-09T03:30:00.199Z,1008.61
2023-04-09T03:35:00.133Z,1008.57
2023-04-09T03:40:00.157Z,1008.61
2023-04-09T03:45:00.129Z,1008.65
2023-04-09T03:50:00.175Z,1008.61
2023-04-09T03:55:00.147Z,1008.55
2023-04-09T04:00:00.171Z,1008.51
2023-04-09T04:05:00.146Z,1008.57
2023-04-09T04:10:00.152Z,1008.59
2023-04-09T04:15:00.157Z,1008.61
2023-04-09T04:20:00.119Z,1008.62
2023-04-09T04:25:00.120Z,1008.66
2023-04-09T04:30:00.211Z,1008.63
2023-04-09T04:35:00.136Z,1008.65
2023-04-09T04:40:00.144Z,1008.71
2023-04-09T04:45:00.128Z,1008.67
2023-04-09T04:50:00.094Z,1008.72
2023-04-09T04:55:00.148Z,1008.75
2023-04-09T05:00:00.132Z,1008.7
2023-04-09T05:05:00.116Z,1008.74
2023-04-09T05:10:00.140Z,1008.82
2023-04-09T05:15:00.149Z,1008.74
2023-04-09T05:20:00.160Z,1008.7
2023-04-09T05:25:00.129Z,1008.65
2023-04-09T05:30:00.952Z,1008.66
2023-04-09T05:35:00.149Z,1008.8
2023-04-09T05:40:00.125Z,1008.83
2023-04-09T05:45:00.098Z,1008.87
2023-04-09T05:50:00.190Z,1009.05
2023-04-09T05:55:00.154Z,1009.09
2023-04-09T06:00:00.150Z,1009.04
2023-04-09T06:05:00.312Z,1009.04
2023-04-09T06:10:00.094Z,1008.97
2023-04-09T06:15:00.121Z,1009.07
2023-04-09T06:20:00.156Z,1009
2023-04-09T06:25:00.158Z,1008.98
2023-04-09T06:30:00.176Z,1009.09
2023-04-09T06:35:00.166Z,1009.05
2023-04-09T06:40:01.511Z,1009.1
2023-04-09T06:45:00.113Z,1009.19
2023-04-09T06:50:00.134Z,1009.32
2023-04-09T06:55:00.142Z,1009.25
2023-04-09T07:00:00.161Z,1009.27
2023-04-09T07:05:00.132Z,1009.36
2023-04-09T07:10:00.167Z,1009.38
2023-04-09T07:15:00.165Z,1009.4
2023-04-09T07:20:00.248Z,1009.44
2023-04-09T07:25:00.119Z,1009.5
2023-04-09T07:30:00.103Z,1009.49
2023-04-09T07:35:00.140Z,1009.54
2023-04-09T07:40:00.156Z,1009.56
2023-04-09T07:45:00.145Z,1009.59
2023-04-09T07:50:00.134Z,1009.47
2023-04-09T07:55:00.138Z,1009.57
2023-04-09T08:00:00.229Z,1009.49
2023-04-09T08:05:00.222Z,1009.46
2023-04-09T08:10:00.124Z,1009.5
2023-04-09T08:15:00.151Z,1009.47
2023-04-09T08:20:00.134Z,1009.5
2023-04-09T08:25:01.521Z,1009.47
2023-04-09T08:30:00.106Z,1009.59
2023-04-09T08:35:00.157Z,1009.56
2023-04-09T08:40:00.156Z,1009.48
2023-04-09T08:45:00.138Z,1009.52
2023-04-09T08:50:00.190Z,1009.35
2023-04-09T08:55:00.185Z,1009.44
2023-04-09T09:00:00.146Z,1009.39
2023-04-09T09:05:00.146Z,1009.26
2023-04-09T09:10:00.126Z,1009.18
2023-04-09T09:15:00.133Z,1009.24
2023-04-09T09:20:00.129Z,1009.27
2023-04-09T09:25:00.103Z,1009.24
2023-04-09T09:30:00.144Z,1009.28
2023-04-09T09:35:00.117Z,1009.21
2023-04-09T09:40:00.118Z,1009.25
2023-04-09T09:45:00.120Z,1009.25
2023-04-09T09:50:00.124Z,1009.21
2023-04-09T09:55:00.150Z,1009.11
2023-04-09T10:00:00.152Z,1009.06
2023-04-09T10:05:00.120Z,1009.04
2023-04-09T10:10:00.154Z,1008.98
2023-04-09T10:15:00.178Z,1008.95
2023-04-09T10:20:00.148Z,1008.93
2023-04-09T10:25:00.173Z,1008.84
2023-04-09T10:30:00.224Z,1008.9
2023-04-09T10:35:00.131Z,1008.94
2023-04-09T10:40:00.154Z,1008.89
2023-04-09T10:45:00.137Z,1008.88
2023-04-09T10:50:00.129Z,1008.81
2023-04-09T10:55:00.137Z,1008.81
2023-04-09T11:00:00.150Z,1008.88
2023-04-09T11:05:00.238Z,1008.81
2023-04-09T11:10:00.139Z,1008.7
2023-04-09T11:15:00.164Z,1008.83
2023-04-09T11:20:00.124Z,1008.78
2023-04-09T11:25:00.137Z,1008.74
2023-04-09T11:30:00.162Z,1008.72
2023-04-09T11:35:00.146Z,1008.55
2023-04-09T11:40:00.122Z,1008.61
2023-04-09T11:45:00.123Z,1008.6
2023-04-09T11:50:00.142Z,1008.65
2023-04-09T11:55:00.155Z,1008.64
2023-04-09T12:00:00.833Z,1008.54
2023-04-09T12:05:00.121Z,1008.54
2023-04-09T12:10:00.117Z,1008.52
2023-04-09T12:15:00.145Z,1008.58
2023-04-09T12:20:00.115Z,1008.51
2023-04-09T12:25:00.110Z,1008.44
2023-04-09T12:30:00.173Z,1008.55
2023-04-09T12:35:00.133Z,1008.46
2023-04-09T12:40:00.127Z,1008.35
2023-04-09T12:45:00.176Z,1008.37
2023-04-09T12:50:00.153Z,1008.34
2023-04-09T12:55:00.130Z,1008.32
2023-04-09T13:00:00.166Z,1008.32
2023-04-09T13:05:00.119Z,1008.21
2023-04-09T13:10:00.135Z,1008.24
2023-04-09T13:15:00.132Z,1008.17
2023-04-09T13:20:00.149Z,1008.11
2023-04-09T13:25:00.165Z,1008.06
2023-04-09T13:30:00.149Z,1008.04
2023-04-09T13:35:00.144Z,1007.99
2023-04-09T13:40:00.186Z,1007.96
2023-04-09T13:45:00.223Z,1007.91
2023-04-09T13:50:00.126Z,1007.93
2023-04-09T13:55:00.197Z,1007.86
2023-04-09T14:00:00.146Z,1007.75
2023-04-09T14:05:00.122Z,1007.72
2023-04-09T14:10:00.157Z,1007.72
2023-04-09T14:15:00.141Z,1007.74
2023-04-09T14:20:00.142Z,1007.63
2023-04-09T14:25:00.131Z,1007.64
2023-04-09T14:30:00.140Z,1007.64
2023-04-09T14:35:00.248Z,1007.77
2023-04-09T14:40:00.131Z,1007.59
2023-04-09T14:45:00.141Z,1007.49
2023-04-09T14:50:00.222Z,1007.5
2023-04-09T14:55:00.189Z,1007.48
2023-04-09T15:00:00.146Z,1007.44
2023-04-09T15:05:00.200Z,1007.41
2023-04-09T15:10:00.124Z,1007.28
2023-04-09T15:15:00.126Z,1007.28
2023-04-09T15:20:00.159Z,1007.29
2023-04-09T15:25:00.117Z,1007.25
2023-04-09T15:30:00.166Z,1007.25
2023-04-09T15:35:00.230Z,1007.3
2023-04-09T15:40:00.189Z,1007.36
2023-04-09T15:45:00.118Z,1007.29
2023-04-09T15:50:00.135Z,1007.33
2023-04-09T15:55:00.130Z,1007.35
2023-04-09T16:00:00.154Z,1007.36
2023-04-09T16:05:00.144Z,1007.33
2023-04-09T16:10:00.149Z,1007.93
2023-04-09T16:15:00.206Z,1007.36
2023-04-09T16:20:00.187Z,1007.34
2023-04-09T16:25:00.121Z,1007.33
2023-04-09T16:30:00.178Z,1007.52
2023-04-09T16:35:00.158Z,1007.46
2023-04-09T16:40:00.121Z,1007.5
2023-04-09T16:45:00.109Z,1007.39
2023-04-09T16:50:00.145Z,1007.35
2023-04-09T16:55:00.153Z,1007.43
2023-04-09T17:00:00.200Z,1007.37
2023-04-09T17:05:00.135Z,1007.3
2023-04-09T17:10:00.142Z,1007.35
2023-04-09T17:15:00.174Z,1007.34
2023-04-09T17:20:00.141Z,1007.4
2023-04-09T17:25:00.108Z,1007.48
2023-04-09T17:30:00.141Z,1007.4
2023-04-09T17:35:00.150Z,1007.45
2023-04-09T17:40:00.158Z,1007.39
2023-04-09T17:45:00.133Z,1007.33
2023-04-09T17:50:00.168Z,1007.53
2023-04-09T17:55:00.175Z,1007.49
2023-04-09T18:00:00.179Z,1007.48
2023-04-09T18:05:00.267Z,1007.44
2023-04-09T18:10:00.140Z,1007.43
2023-04-09T18:15:00.155Z,1007.48
2023-04-09T18:20:00.142Z,1007.49
2023-04-09T18:25:00.120Z,1007.52
2023-04-09T18:30:00.134Z,1007.53
2023-04-09T18:35:00.197Z,1007.62
2023-04-09T18:40:01.955Z,1007.7
2023-04-09T18:45:00.140Z,1007.71
2023-04-09T18:50:00.180Z,1007.64
2023-04-09T18:55:00.133Z,1007.74
2023-04-09T19:00:00.157Z,1007.79
2023-04-09T19:05:00.298Z,1007.72
2023-04-09T19:10:00.111Z,1007.78
2023-04-09T19:15:00.127Z,1007.76
2023-04-09T19:20:00.186Z,1007.82
2023-04-09T19:25:00.154Z,1007.88
2023-04-09T19:30:00.168Z,1007.88
2023-04-09T19:35:00.166Z,1007.86
2023-04-09T19:40:00.217Z,1007.84
2023-04-09T19:45:00.125Z,1007.63
2023-04-09T19:50:00.166Z,1007.69
2023-04-09T19:55:00.145Z,1007.66
2023-04-09T20:00:00.197Z,1007.75
2023-04-09T20:05:00.169Z,1007.78
2023-04-09T20:10:00.133Z,1007.86
2023-04-09T20:15:00.155Z,1007.84
2023-04-09T20:20:00.169Z,1007.92
2023-04-09T20:25:00.176Z,1008.51
2023-04-09T20:30:00.152Z,1008.57
2023-04-09T20:35:00.176Z,1008.61
2023-04-09T20:40:00.141Z,1008.57
2023-04-09T20:45:01.474Z,1008.48
2023-04-09T20:50:00.187Z,1008.48
2023-04-09T20:55:00.127Z,1008.51
2023-04-09T21:00:00.161Z,1008.45
2023-04-09T21:05:05.708Z,1008.46
2023-04-09T21:10:00.152Z,1008.47
2023-04-09T21:15:00.239Z,1008.45
2023-04-09T21:20:00.128Z,1008.36
2023-04-09T21:25:00.116Z,1008.43
2023-04-09T21:30:00.158Z,1008.33
2023-04-09T21:35:00.174Z,1008.24
2023-04-09T21:40:00.152Z,1008.2
2023-04-09T21:45:00.150Z,1008.21
2023-04-09T21:50:00.153Z,1008.16
2023-04-09T21:55:00.172Z,1008.14
2023-04-09T22:00:00.162Z,1008.21
2023-04-09T22:05:00.238Z,1008.25
2023-04-09T22:10:00.153Z,1008.32
2023-04-09T22:15:00.149Z,1008.34
2023-04-09T22:20:00.181Z,1008.33
2023-04-09T22:25:00.178Z,1008.22
2023-04-09T22:30:00.159Z,1008.32
2023-04-09T22:35:00.219Z,1008.32
2023-04-09T22:40:00.154Z,1008.35
2023-04-09T22:45:00.111Z,1008.26
2023-04-09T22:50:00.121Z,1008.39
2023-04-09T22:55:00.140Z,1008.37
2023-04-09T23:00:00.173Z,1008.33
2023-04-09T23:05:00.148Z,1008.37
2023-04-09T23:10:00.143Z,1008.39
2023-04-09T23:15:00.149Z,1008.44
2023-04-09T23:20:00.200Z,1008.35
2023-04-09T23:25:00.102Z,1008.37
2023-04-09T23:30:00.112Z,1008.33
2023-04-09T23:35:00.181Z,1008.34
2023-04-09T23:40:00.130Z,1008.27
2023-04-09T23:45:00.132Z,1008.24
2023-04-09T23:50:00.139Z,1008.32
2023-04-09T23:55:00.138Z,1008.25
